sensor_id;sensor_type;location;lat;lon;timestamp;P1;durP1;ratioP1;P2;durP2;ratioP2
78931;SDS011;68331;53.362;55.932;2023-05-07T00:02:01;9.40;;;4.10;;
78931;SDS011;68331;53.362;55.932;2023-05-07T00:04:29;8.00;;;4.57;;
78931;SDS011;68331;53.362;55.932;2023-05-07T00:07:01;10.13;;;4.63;;
78931;SDS011;68331;53.362;55.932;2023-05-07T00:09:27;12.90;;;4.53;;
78931;SDS011;68331;53.362;55.932;2023-05-07T00:11:54;11.82;;;4.15;;
78931;SDS011;68331;53.362;55.932;2023-05-07T00:14:20;12.75;;;4.63;;
78931;SDS011;68331;53.362;55.932;2023-05-07T00:16:46;9.13;;;4.07;;
78931;SDS011;68331;53.362;55.932;2023-05-07T00:19:12;11.60;;;4.85;;
78931;SDS011;68331;53.362;55.932;2023-05-07T00:21:38;12.23;;;4.30;;
78931;SDS011;68331;53.362;55.932;2023-05-07T00:24:04;6.78;;;3.80;;
78931;SDS011;68331;53.362;55.932;2023-05-07T00:26:31;9.32;;;4.55;;
78931;SDS011;68331;53.362;55.932;2023-05-07T00:28:57;8.18;;;4.25;;
78931;SDS011;68331;53.362;55.932;2023-05-07T00:31:23;11.85;;;4.72;;
78931;SDS011;68331;53.362;55.932;2023-05-07T00:33:49;11.43;;;4.45;;
78931;SDS011;68331;53.362;55.932;2023-05-07T00:36:15;8.38;;;4.78;;
78931;SDS011;68331;53.362;55.932;2023-05-07T00:38:41;10.70;;;4.68;;
78931;SDS011;68331;53.362;55.932;2023-05-07T00:41:07;12.93;;;5.32;;
78931;SDS011;68331;53.362;55.932;2023-05-07T00:43:33;14.07;;;5.30;;
78931;SDS011;68331;53.362;55.932;2023-05-07T00:45:59;16.83;;;4.93;;
78931;SDS011;68331;53.362;55.932;2023-05-07T00:48:27;11.48;;;4.68;;
78931;SDS011;68331;53.362;55.932;2023-05-07T00:50:53;15.93;;;5.28;;
78931;SDS011;68331;53.362;55.932;2023-05-07T00:53:20;9.60;;;4.68;;
78931;SDS011;68331;53.362;55.932;2023-05-07T00:55:46;15.02;;;5.28;;
78931;SDS011;68331;53.362;55.932;2023-05-07T00:58:13;15.38;;;4.60;;
78931;SDS011;68331;53.362;55.932;2023-05-07T01:00:40;18.58;;;5.95;;
78931;SDS011;68331;53.362;55.932;2023-05-07T01:03:06;14.45;;;4.78;;
78931;SDS011;68331;53.362;55.932;2023-05-07T01:05:32;15.63;;;4.30;;
78931;SDS011;68331;53.362;55.932;2023-05-07T01:07:58;9.45;;;4.20;;
78931;SDS011;68331;53.362;55.932;2023-05-07T01:10:25;16.70;;;4.68;;
78931;SDS011;68331;53.362;55.932;2023-05-07T01:12:52;11.90;;;5.05;;
78931;SDS011;68331;53.362;55.932;2023-05-07T01:15:19;18.88;;;3.72;;
78931;SDS011;68331;53.362;55.932;2023-05-07T01:17:46;15.23;;;4.68;;
78931;SDS011;68331;53.362;55.932;2023-05-07T01:20:18;16.50;;;4.80;;
78931;SDS011;68331;53.362;55.932;2023-05-07T01:22:46;11.55;;;4.45;;
78931;SDS011;68331;53.362;55.932;2023-05-07T01:25:13;16.55;;;4.97;;
78931;SDS011;68331;53.362;55.932;2023-05-07T01:27:45;12.18;;;4.38;;
78931;SDS011;68331;53.362;55.932;2023-05-07T01:30:11;14.90;;;5.32;;
78931;SDS011;68331;53.362;55.932;2023-05-07T01:33:12;14.02;;;4.25;;
78931;SDS011;68331;53.362;55.932;2023-05-07T01:35:37;14.95;;;4.50;;
78931;SDS011;68331;53.362;55.932;2023-05-07T01:38:06;16.10;;;4.93;;
78931;SDS011;68331;53.362;55.932;2023-05-07T01:40:33;10.63;;;4.20;;
78931;SDS011;68331;53.362;55.932;2023-05-07T01:43:03;17.23;;;5.35;;
78931;SDS011;68331;53.362;55.932;2023-05-07T01:45:32;9.60;;;3.80;;
78931;SDS011;68331;53.362;55.932;2023-05-07T01:48:01;10.75;;;5.13;;
78931;SDS011;68331;53.362;55.932;2023-05-07T01:50:28;10.27;;;3.95;;
78931;SDS011;68331;53.362;55.932;2023-05-07T01:52:55;14.88;;;4.43;;
78931;SDS011;68331;53.362;55.932;2023-05-07T01:55:22;13.88;;;3.97;;
78931;SDS011;68331;53.362;55.932;2023-05-07T01:57:49;15.85;;;4.45;;
78931;SDS011;68331;53.362;55.932;2023-05-07T02:00:16;16.75;;;4.78;;
78931;SDS011;68331;53.362;55.932;2023-05-07T02:02:44;13.10;;;3.95;;
78931;SDS011;68331;53.362;55.932;2023-05-07T02:05:23;13.93;;;3.50;;
78931;SDS011;68331;53.362;55.932;2023-05-07T02:07:57;14.02;;;3.80;;
78931;SDS011;68331;53.362;55.932;2023-05-07T02:10:24;10.88;;;3.72;;
78931;SDS011;68331;53.362;55.932;2023-05-07T02:12:50;15.75;;;3.80;;
78931;SDS011;68331;53.362;55.932;2023-05-07T02:15:17;12.00;;;4.82;;
78931;SDS011;68331;53.362;55.932;2023-05-07T02:18:00;19.70;;;4.53;;
78931;SDS011;68331;53.362;55.932;2023-05-07T02:20:29;6.88;;;3.67;;
78931;SDS011;68331;53.362;55.932;2023-05-07T02:22:55;13.18;;;4.40;;
78931;SDS011;68331;53.362;55.932;2023-05-07T02:25:22;17.98;;;4.95;;
78931;SDS011;68331;53.362;55.932;2023-05-07T02:27:48;12.10;;;4.95;;
78931;SDS011;68331;53.362;55.932;2023-05-07T02:30:15;13.80;;;5.45;;
78931;SDS011;68331;53.362;55.932;2023-05-07T02:32:42;13.57;;;4.65;;
78931;SDS011;68331;53.362;55.932;2023-05-07T02:35:08;14.52;;;4.57;;
78931;SDS011;68331;53.362;55.932;2023-05-07T02:37:34;10.77;;;4.20;;
78931;SDS011;68331;53.362;55.932;2023-05-07T02:40:02;13.73;;;5.63;;
78931;SDS011;68331;53.362;55.932;2023-05-07T02:42:30;13.65;;;4.20;;
78931;SDS011;68331;53.362;55.932;2023-05-07T02:44:56;9.98;;;4.95;;
78931;SDS011;68331;53.362;55.932;2023-05-07T02:47:23;16.45;;;5.25;;
78931;SDS011;68331;53.362;55.932;2023-05-07T02:49:53;12.90;;;4.57;;
78931;SDS011;68331;53.362;55.932;2023-05-07T02:52:20;13.88;;;5.20;;
78931;SDS011;68331;53.362;55.932;2023-05-07T02:54:47;14.43;;;5.35;;
78931;SDS011;68331;53.362;55.932;2023-05-07T02:57:13;12.48;;;4.53;;
78931;SDS011;68331;53.362;55.932;2023-05-07T02:59:40;9.38;;;4.88;;
78931;SDS011;68331;53.362;55.932;2023-05-07T03:02:06;11.45;;;4.38;;
78931;SDS011;68331;53.362;55.932;2023-05-07T03:04:32;16.63;;;5.03;;
78931;SDS011;68331;53.362;55.932;2023-05-07T03:06:59;13.50;;;5.05;;
78931;SDS011;68331;53.362;55.932;2023-05-07T03:09:26;12.57;;;4.07;;
78931;SDS011;68331;53.362;55.932;2023-05-07T03:11:53;16.27;;;4.90;;
78931;SDS011;68331;53.362;55.932;2023-05-07T03:14:19;16.83;;;5.20;;
78931;SDS011;68331;53.362;55.932;2023-05-07T03:16:45;15.85;;;4.72;;
78931;SDS011;68331;53.362;55.932;2023-05-07T03:19:12;14.85;;;4.65;;
78931;SDS011;68331;53.362;55.932;2023-05-07T03:21:38;17.88;;;5.03;;
78931;SDS011;68331;53.362;55.932;2023-05-07T03:24:05;17.73;;;5.28;;
78931;SDS011;68331;53.362;55.932;2023-05-07T03:26:31;13.05;;;4.57;;
78931;SDS011;68331;53.362;55.932;2023-05-07T03:28:57;9.18;;;4.80;;
78931;SDS011;68331;53.362;55.932;2023-05-07T03:31:23;13.30;;;4.22;;
78931;SDS011;68331;53.362;55.932;2023-05-07T03:33:52;16.10;;;4.47;;
78931;SDS011;68331;53.362;55.932;2023-05-07T03:36:19;11.98;;;4.40;;
78931;SDS011;68331;53.362;55.932;2023-05-07T03:38:46;11.80;;;3.85;;
78931;SDS011;68331;53.362;55.932;2023-05-07T03:41:14;15.88;;;4.93;;
78931;SDS011;68331;53.362;55.932;2023-05-07T03:43:43;12.82;;;4.55;;
78931;SDS011;68331;53.362;55.932;2023-05-07T03:46:11;15.88;;;4.43;;
78931;SDS011;68331;53.362;55.932;2023-05-07T03:48:37;13.40;;;4.60;;
78931;SDS011;68331;53.362;55.932;2023-05-07T03:51:04;10.20;;;4.38;;
78931;SDS011;68331;53.362;55.932;2023-05-07T03:53:32;13.18;;;4.47;;
78931;SDS011;68331;53.362;55.932;2023-05-07T03:55:58;11.80;;;4.90;;
78931;SDS011;68331;53.362;55.932;2023-05-07T03:58:25;11.23;;;5.28;;
78931;SDS011;68331;53.362;55.932;2023-05-07T04:00:53;11.77;;;5.43;;
78931;SDS011;68331;53.362;55.932;2023-05-07T04:03:24;10.20;;;4.32;;
78931;SDS011;68331;53.362;55.932;2023-05-07T04:05:51;14.75;;;5.45;;
78931;SDS011;68331;53.362;55.932;2023-05-07T04:08:17;11.90;;;4.75;;
78931;SDS011;68331;53.362;55.932;2023-05-07T04:10:54;14.40;;;6.18;;
78931;SDS011;68331;53.362;55.932;2023-05-07T04:13:20;15.10;;;5.35;;
78931;SDS011;68331;53.362;55.932;2023-05-07T04:15:46;16.67;;;6.63;;
78931;SDS011;68331;53.362;55.932;2023-05-07T04:18:16;11.77;;;5.55;;
78931;SDS011;68331;53.362;55.932;2023-05-07T04:20:45;16.35;;;7.35;;
78931;SDS011;68331;53.362;55.932;2023-05-07T04:23:13;13.93;;;6.20;;
78931;SDS011;68331;53.362;55.932;2023-05-07T04:25:40;21.13;;;8.02;;
78931;SDS011;68331;53.362;55.932;2023-05-07T04:28:20;14.57;;;6.25;;
78931;SDS011;68331;53.362;55.932;2023-05-07T04:30:46;12.48;;;6.65;;
78931;SDS011;68331;53.362;55.932;2023-05-07T04:33:13;13.30;;;7.35;;
78931;SDS011;68331;53.362;55.932;2023-05-07T04:35:42;16.98;;;6.15;;
78931;SDS011;68331;53.362;55.932;2023-05-07T04:38:08;20.58;;;7.30;;
78931;SDS011;68331;53.362;55.932;2023-05-07T04:40:38;15.85;;;7.40;;
78931;SDS011;68331;53.362;55.932;2023-05-07T04:43:05;17.13;;;6.50;;
78931;SDS011;68331;53.362;55.932;2023-05-07T04:45:39;17.73;;;5.78;;
78931;SDS011;68331;53.362;55.932;2023-05-07T04:48:08;12.88;;;5.82;;
78931;SDS011;68331;53.362;55.932;2023-05-07T04:50:37;13.90;;;5.07;;
78931;SDS011;68331;53.362;55.932;2023-05-07T04:53:05;11.40;;;5.25;;
78931;SDS011;68331;53.362;55.932;2023-05-07T04:55:31;11.18;;;5.78;;
78931;SDS011;68331;53.362;55.932;2023-05-07T04:57:57;11.65;;;5.13;;
78931;SDS011;68331;53.362;55.932;2023-05-07T05:00:24;6.70;;;3.97;;
78931;SDS011;68331;53.362;55.932;2023-05-07T05:02:53;10.90;;;3.78;;
78931;SDS011;68331;53.362;55.932;2023-05-07T05:05:21;8.63;;;3.85;;
78931;SDS011;68331;53.362;55.932;2023-05-07T05:07:51;11.57;;;4.00;;
78931;SDS011;68331;53.362;55.932;2023-05-07T05:10:17;7.68;;;3.78;;
78931;SDS011;68331;53.362;55.932;2023-05-07T05:12:46;11.05;;;3.40;;
78931;SDS011;68331;53.362;55.932;2023-05-07T05:15:12;15.73;;;2.70;;
78931;SDS011;68331;53.362;55.932;2023-05-07T05:17:39;10.45;;;2.45;;
78931;SDS011;68331;53.362;55.932;2023-05-07T05:20:06;5.00;;;2.45;;
78931;SDS011;68331;53.362;55.932;2023-05-07T05:22:33;7.65;;;2.92;;
78931;SDS011;68331;53.362;55.932;2023-05-07T05:25:03;6.35;;;2.65;;
78931;SDS011;68331;53.362;55.932;2023-05-07T05:27:29;7.90;;;2.42;;
78931;SDS011;68331;53.362;55.932;2023-05-07T05:29:55;12.13;;;3.10;;
78931;SDS011;68331;53.362;55.932;2023-05-07T05:32:22;8.75;;;3.80;;
78931;SDS011;68331;53.362;55.932;2023-05-07T05:34:50;8.05;;;3.80;;
78931;SDS011;68331;53.362;55.932;2023-05-07T05:37:17;5.38;;;2.97;;
78931;SDS011;68331;53.362;55.932;2023-05-07T05:42:10;5.38;;;2.40;;
78931;SDS011;68331;53.362;55.932;2023-05-07T05:44:36;6.10;;;2.53;;
78931;SDS011;68331;53.362;55.932;2023-05-07T05:47:02;3.05;;;2.08;;
78931;SDS011;68331;53.362;55.932;2023-05-07T05:49:29;5.70;;;2.67;;
78931;SDS011;68331;53.362;55.932;2023-05-07T05:51:55;5.13;;;2.05;;
78931;SDS011;68331;53.362;55.932;2023-05-07T05:54:23;2.50;;;2.30;;
78931;SDS011;68331;53.362;55.932;2023-05-07T05:56:49;3.30;;;2.42;;
78931;SDS011;68331;53.362;55.932;2023-05-07T05:59:16;10.10;;;3.03;;
78931;SDS011;68331;53.362;55.932;2023-05-07T06:01:42;4.72;;;2.40;;
78931;SDS011;68331;53.362;55.932;2023-05-07T06:04:08;4.68;;;2.03;;
78931;SDS011;68331;53.362;55.932;2023-05-07T06:06:34;4.18;;;1.77;;
78931;SDS011;68331;53.362;55.932;2023-05-07T06:11:35;5.72;;;2.53;;
78931;SDS011;68331;53.362;55.932;2023-05-07T06:14:01;3.83;;;2.35;;
78931;SDS011;68331;53.362;55.932;2023-05-07T06:16:28;5.90;;;2.20;;
78931;SDS011;68331;53.362;55.932;2023-05-07T06:18:55;2.45;;;1.63;;
78931;SDS011;68331;53.362;55.932;2023-05-07T06:21:21;1.77;;;1.67;;
78931;SDS011;68331;53.362;55.932;2023-05-07T06:23:47;5.43;;;2.10;;
78931;SDS011;68331;53.362;55.932;2023-05-07T06:26:13;3.53;;;1.80;;
78931;SDS011;68331;53.362;55.932;2023-05-07T06:28:42;3.75;;;1.90;;
78931;SDS011;68331;53.362;55.932;2023-05-07T06:31:17;3.78;;;1.80;;
78931;SDS011;68331;53.362;55.932;2023-05-07T06:33:55;2.17;;;2.00;;
78931;SDS011;68331;53.362;55.932;2023-05-07T06:36:26;3.83;;;2.03;;
78931;SDS011;68331;53.362;55.932;2023-05-07T06:38:55;2.55;;;1.73;;
78931;SDS011;68331;53.362;55.932;2023-05-07T06:41:21;2.20;;;2.00;;
78931;SDS011;68331;53.362;55.932;2023-05-07T06:43:47;3.38;;;1.80;;
78931;SDS011;68331;53.362;55.932;2023-05-07T06:46:49;1.63;;;1.50;;
78931;SDS011;68331;53.362;55.932;2023-05-07T06:49:15;2.17;;;1.85;;
78931;SDS011;68331;53.362;55.932;2023-05-07T06:51:42;2.53;;;1.85;;
78931;SDS011;68331;53.362;55.932;2023-05-07T06:54:08;1.70;;;1.60;;
78931;SDS011;68331;53.362;55.932;2023-05-07T06:56:37;3.08;;;1.70;;
78931;SDS011;68331;53.362;55.932;2023-05-07T06:59:04;2.70;;;1.70;;
78931;SDS011;68331;53.362;55.932;2023-05-07T07:01:35;2.70;;;2.03;;
78931;SDS011;68331;53.362;55.932;2023-05-07T07:04:02;4.90;;;1.98;;
78931;SDS011;68331;53.362;55.932;2023-05-07T07:06:29;5.15;;;1.92;;
78931;SDS011;68331;53.362;55.932;2023-05-07T07:08:58;2.05;;;1.90;;
78931;SDS011;68331;53.362;55.932;2023-05-07T07:11:24;2.22;;;2.00;;
78931;SDS011;68331;53.362;55.932;2023-05-07T07:13:50;3.45;;;1.95;;
78931;SDS011;68331;53.362;55.932;2023-05-07T07:16:17;3.65;;;2.50;;
78931;SDS011;68331;53.362;55.932;2023-05-07T07:18:44;3.85;;;2.00;;
78931;SDS011;68331;53.362;55.932;2023-05-07T07:21:10;1.83;;;1.73;;
78931;SDS011;68331;53.362;55.932;2023-05-07T07:23:36;3.42;;;2.40;;
78931;SDS011;68331;53.362;55.932;2023-05-07T07:26:05;3.13;;;2.08;;
78931;SDS011;68331;53.362;55.932;2023-05-07T07:28:32;2.45;;;1.90;;
78931;SDS011;68331;53.362;55.932;2023-05-07T07:30:58;2.65;;;2.05;;
78931;SDS011;68331;53.362;55.932;2023-05-07T07:33:24;2.83;;;2.00;;
78931;SDS011;68331;53.362;55.932;2023-05-07T07:35:51;2.33;;;2.22;;
78931;SDS011;68331;53.362;55.932;2023-05-07T07:38:17;1.75;;;1.65;;
78931;SDS011;68331;53.362;55.932;2023-05-07T07:40:42;2.67;;;2.17;;
78931;SDS011;68331;53.362;55.932;2023-05-07T07:43:10;1.88;;;1.70;;
78931;SDS011;68331;53.362;55.932;2023-05-07T07:45:36;3.35;;;1.83;;
78931;SDS011;68331;53.362;55.932;2023-05-07T07:48:02;4.43;;;2.00;;
78931;SDS011;68331;53.362;55.932;2023-05-07T07:50:32;2.35;;;1.55;;
78931;SDS011;68331;53.362;55.932;2023-05-07T07:52:58;2.38;;;1.85;;
78931;SDS011;68331;53.362;55.932;2023-05-07T07:55:26;3.72;;;1.90;;
78931;SDS011;68331;53.362;55.932;2023-05-07T08:00:20;2.88;;;2.00;;
78931;SDS011;68331;53.362;55.932;2023-05-07T08:02:51;2.08;;;1.88;;
78931;SDS011;68331;53.362;55.932;2023-05-07T08:05:22;2.88;;;1.83;;
78931;SDS011;68331;53.362;55.932;2023-05-07T08:07:50;2.83;;;2.53;;
78931;SDS011;68331;53.362;55.932;2023-05-07T08:10:21;2.10;;;1.92;;
78931;SDS011;68331;53.362;55.932;2023-05-07T08:12:50;1.85;;;1.73;;
78931;SDS011;68331;53.362;55.932;2023-05-07T08:15:16;2.67;;;2.28;;
78931;SDS011;68331;53.362;55.932;2023-05-07T08:17:43;2.80;;;2.58;;
78931;SDS011;68331;53.362;55.932;2023-05-07T08:20:10;2.35;;;2.15;;
78931;SDS011;68331;53.362;55.932;2023-05-07T08:22:36;2.55;;;2.03;;
78931;SDS011;68331;53.362;55.932;2023-05-07T08:25:03;2.50;;;2.30;;
78931;SDS011;68331;53.362;55.932;2023-05-07T08:27:30;3.13;;;2.83;;
78931;SDS011;68331;53.362;55.932;2023-05-07T08:29:55;2.20;;;2.00;;
78931;SDS011;68331;53.362;55.932;2023-05-07T08:32:22;2.90;;;2.42;;
78931;SDS011;68331;53.362;55.932;2023-05-07T08:34:48;2.67;;;2.47;;
78931;SDS011;68331;53.362;55.932;2023-05-07T08:37:14;3.15;;;2.47;;
78931;SDS011;68331;53.362;55.932;2023-05-07T08:39:40;2.38;;;1.92;;
78931;SDS011;68331;53.362;55.932;2023-05-07T08:42:14;2.05;;;1.85;;
78931;SDS011;68331;53.362;55.932;2023-05-07T08:44:42;3.70;;;2.40;;
78931;SDS011;68331;53.362;55.932;2023-05-07T08:47:13;3.00;;;1.83;;
78931;SDS011;68331;53.362;55.932;2023-05-07T08:49:40;1.85;;;1.75;;
78931;SDS011;68331;53.362;55.932;2023-05-07T08:52:07;2.30;;;1.80;;
78931;SDS011;68331;53.362;55.932;2023-05-07T08:54:33;7.03;;;4.43;;
78931;SDS011;68331;53.362;55.932;2023-05-07T08:57:03;2.55;;;2.35;;
78931;SDS011;68331;53.362;55.932;2023-05-07T08:59:32;2.35;;;2.15;;
78931;SDS011;68331;53.362;55.932;2023-05-07T09:01:59;2.58;;;2.38;;
78931;SDS011;68331;53.362;55.932;2023-05-07T09:04:25;2.55;;;2.35;;
78931;SDS011;68331;53.362;55.932;2023-05-07T09:06:52;2.80;;;2.60;;
78931;SDS011;68331;53.362;55.932;2023-05-07T09:09:21;2.97;;;2.78;;
78931;SDS011;68331;53.362;55.932;2023-05-07T09:11:56;2.65;;;2.15;;
78931;SDS011;68331;53.362;55.932;2023-05-07T09:14:25;2.05;;;1.48;;
78931;SDS011;68331;53.362;55.932;2023-05-07T09:16:52;1.38;;;1.27;;
78931;SDS011;68331;53.362;55.932;2023-05-07T09:19:23;1.50;;;1.40;;
78931;SDS011;68331;53.362;55.932;2023-05-07T09:21:57;1.67;;;1.35;;
78931;SDS011;68331;53.362;55.932;2023-05-07T09:24:30;2.53;;;2.33;;
78931;SDS011;68331;53.362;55.932;2023-05-07T09:27:01;2.30;;;2.13;;
78931;SDS011;68331;53.362;55.932;2023-05-07T09:29:29;2.08;;;1.98;;
78931;SDS011;68331;53.362;55.932;2023-05-07T09:32:03;2.72;;;2.03;;
78931;SDS011;68331;53.362;55.932;2023-05-07T09:34:31;2.45;;;2.25;;
78931;SDS011;68331;53.362;55.932;2023-05-07T09:37:03;2.33;;;2.13;;
78931;SDS011;68331;53.362;55.932;2023-05-07T09:39:39;1.90;;;1.80;;
78931;SDS011;68331;53.362;55.932;2023-05-07T09:42:07;2.17;;;2.08;;
78931;SDS011;68331;53.362;55.932;2023-05-07T09:44:35;2.10;;;1.92;;
78931;SDS011;68331;53.362;55.932;2023-05-07T09:47:07;1.83;;;1.50;;
78931;SDS011;68331;53.362;55.932;2023-05-07T09:49:39;1.50;;;1.40;;
78931;SDS011;68331;53.362;55.932;2023-05-07T09:52:10;1.55;;;1.45;;
78931;SDS011;68331;53.362;55.932;2023-05-07T09:54:45;1.10;;;1.10;;
78931;SDS011;68331;53.362;55.932;2023-05-07T09:57:15;2.50;;;1.48;;
78931;SDS011;68331;53.362;55.932;2023-05-07T09:59:48;1.60;;;1.50;;
78931;SDS011;68331;53.362;55.932;2023-05-07T10:02:18;2.38;;;1.67;;
78931;SDS011;68331;53.362;55.932;2023-05-07T10:04:49;1.48;;;1.38;;
78931;SDS011;68331;53.362;55.932;2023-05-07T10:07:21;1.80;;;1.70;;
78931;SDS011;68331;53.362;55.932;2023-05-07T10:09:50;3.25;;;1.67;;
78931;SDS011;68331;53.362;55.932;2023-05-07T10:12:32;2.70;;;1.65;;
78931;SDS011;68331;53.362;55.932;2023-05-07T10:17:36;1.95;;;1.58;;
78931;SDS011;68331;53.362;55.932;2023-05-07T10:20:04;2.00;;;1.80;;
78931;SDS011;68331;53.362;55.932;2023-05-07T10:22:33;2.35;;;1.90;;
78931;SDS011;68331;53.362;55.932;2023-05-07T10:25:06;3.42;;;1.67;;
78931;SDS011;68331;53.362;55.932;2023-05-07T10:27:40;1.60;;;1.50;;
78931;SDS011;68331;53.362;55.932;2023-05-07T10:30:21;1.73;;;1.40;;
78931;SDS011;68331;53.362;55.932;2023-05-07T10:33:10;2.55;;;1.92;;
78931;SDS011;68331;53.362;55.932;2023-05-07T10:35:42;1.50;;;1.40;;
78931;SDS011;68331;53.362;55.932;2023-05-07T10:38:11;2.35;;;2.15;;
78931;SDS011;68331;53.362;55.932;2023-05-07T10:40:40;2.72;;;1.38;;
78931;SDS011;68331;53.362;55.932;2023-05-07T10:43:07;1.60;;;1.50;;
78931;SDS011;68331;53.362;55.932;2023-05-07T10:45:39;1.60;;;1.50;;
78931;SDS011;68331;53.362;55.932;2023-05-07T10:48:11;2.47;;;1.33;;
78931;SDS011;68331;53.362;55.932;2023-05-07T10:50:43;5.75;;;2.13;;
78931;SDS011;68331;53.362;55.932;2023-05-07T10:53:21;1.50;;;1.40;;
78931;SDS011;68331;53.362;55.932;2023-05-07T10:58:55;2.03;;;1.92;;
78931;SDS011;68331;53.362;55.932;2023-05-07T11:01:48;3.85;;;2.67;;
78931;SDS011;68331;53.362;55.932;2023-05-07T11:04:42;3.05;;;2.72;;
78931;SDS011;68331;53.362;55.932;2023-05-07T11:07:27;4.38;;;2.70;;
78931;SDS011;68331;53.362;55.932;2023-05-07T11:10:00;4.57;;;3.42;;
78931;SDS011;68331;53.362;55.932;2023-05-07T11:12:52;3.63;;;3.00;;
78931;SDS011;68331;53.362;55.932;2023-05-07T11:15:34;6.85;;;2.90;;
78931;SDS011;68331;53.362;55.932;2023-05-07T11:18:06;3.65;;;2.65;;
78931;SDS011;68331;53.362;55.932;2023-05-07T11:20:46;3.97;;;2.63;;
78931;SDS011;68331;53.362;55.932;2023-05-07T11:26:08;3.60;;;2.63;;
78931;SDS011;68331;53.362;55.932;2023-05-07T11:28:37;4.03;;;3.03;;
78931;SDS011;68331;53.362;55.932;2023-05-07T11:31:04;3.58;;;2.70;;
78931;SDS011;68331;53.362;55.932;2023-05-07T11:33:31;3.88;;;2.10;;
78931;SDS011;68331;53.362;55.932;2023-05-07T11:36:01;2.03;;;1.83;;
78931;SDS011;68331;53.362;55.932;2023-05-07T11:38:37;2.03;;;1.80;;
78931;SDS011;68331;53.362;55.932;2023-05-07T11:41:04;1.95;;;1.83;;
78931;SDS011;68331;53.362;55.932;2023-05-07T11:43:31;2.80;;;1.90;;
78931;SDS011;68331;53.362;55.932;2023-05-07T11:48:34;1.98;;;1.85;;
78931;SDS011;68331;53.362;55.932;2023-05-07T11:51:02;2.78;;;1.70;;
78931;SDS011;68331;53.362;55.932;2023-05-07T11:53:36;2.50;;;2.30;;
78931;SDS011;68331;53.362;55.932;2023-05-07T11:56:11;2.70;;;2.35;;
78931;SDS011;68331;53.362;55.932;2023-05-07T11:58:38;2.30;;;1.92;;
78931;SDS011;68331;53.362;55.932;2023-05-07T12:03:32;3.22;;;2.20;;
78931;SDS011;68331;53.362;55.932;2023-05-07T12:05:59;1.95;;;1.75;;
78931;SDS011;68331;53.362;55.932;2023-05-07T12:08:25;2.08;;;1.92;;
78931;SDS011;68331;53.362;55.932;2023-05-07T12:10:52;2.95;;;1.98;;
78931;SDS011;68331;53.362;55.932;2023-05-07T12:13:18;3.20;;;2.13;;
78931;SDS011;68331;53.362;55.932;2023-05-07T12:15:45;3.88;;;2.42;;
78931;SDS011;68331;53.362;55.932;2023-05-07T12:18:12;5.63;;;2.05;;
78931;SDS011;68331;53.362;55.932;2023-05-07T12:20:39;2.88;;;1.95;;
78931;SDS011;68331;53.362;55.932;2023-05-07T12:23:05;2.17;;;2.03;;
78931;SDS011;68331;53.362;55.932;2023-05-07T12:25:32;2.90;;;2.13;;
78931;SDS011;68331;53.362;55.932;2023-05-07T12:28:01;3.00;;;1.95;;
78931;SDS011;68331;53.362;55.932;2023-05-07T12:30:36;4.50;;;2.80;;
78931;SDS011;68331;53.362;55.932;2023-05-07T12:33:03;3.05;;;2.53;;
78931;SDS011;68331;53.362;55.932;2023-05-07T12:35:31;2.72;;;2.53;;
78931;SDS011;68331;53.362;55.932;2023-05-07T12:37:58;2.47;;;2.28;;
78931;SDS011;68331;53.362;55.932;2023-05-07T12:40:53;3.15;;;2.22;;
78931;SDS011;68331;53.362;55.932;2023-05-07T12:43:27;2.67;;;2.42;;
78931;SDS011;68331;53.362;55.932;2023-05-07T12:45:55;6.35;;;3.60;;
78931;SDS011;68331;53.362;55.932;2023-05-07T12:48:23;5.13;;;3.80;;
78931;SDS011;68331;53.362;55.932;2023-05-07T12:50:59;2.60;;;2.40;;
78931;SDS011;68331;53.362;55.932;2023-05-07T12:53:26;3.17;;;2.88;;
78931;SDS011;68331;53.362;55.932;2023-05-07T12:55:54;5.47;;;2.97;;
78931;SDS011;68331;53.362;55.932;2023-05-07T12:58:31;3.47;;;2.40;;
78931;SDS011;68331;53.362;55.932;2023-05-07T13:01:00;4.32;;;2.70;;
78931;SDS011;68331;53.362;55.932;2023-05-07T13:03:31;4.35;;;2.40;;
78931;SDS011;68331;53.362;55.932;2023-05-07T13:05:59;6.18;;;3.03;;
78931;SDS011;68331;53.362;55.932;2023-05-07T13:08:27;4.38;;;2.88;;
78931;SDS011;68331;53.362;55.932;2023-05-07T13:11:02;4.85;;;3.33;;
78931;SDS011;68331;53.362;55.932;2023-05-07T13:13:30;4.00;;;2.80;;
78931;SDS011;68331;53.362;55.932;2023-05-07T13:15:56;5.38;;;3.20;;
78931;SDS011;68331;53.362;55.932;2023-05-07T13:18:24;4.45;;;3.17;;
78931;SDS011;68331;53.362;55.932;2023-05-07T13:20:51;3.42;;;3.13;;
78931;SDS011;68331;53.362;55.932;2023-05-07T13:23:18;5.40;;;3.08;;
78931;SDS011;68331;53.362;55.932;2023-05-07T13:25:44;4.85;;;3.25;;
78931;SDS011;68331;53.362;55.932;2023-05-07T13:28:10;3.78;;;3.47;;
78931;SDS011;68331;53.362;55.932;2023-05-07T13:30:36;5.65;;;3.95;;
78931;SDS011;68331;53.362;55.932;2023-05-07T13:33:03;5.20;;;4.03;;
78931;SDS011;68331;53.362;55.932;2023-05-07T13:35:29;6.57;;;3.90;;
78931;SDS011;68331;53.362;55.932;2023-05-07T13:37:55;3.78;;;3.15;;
78931;SDS011;68331;53.362;55.932;2023-05-07T13:40:22;7.38;;;3.17;;
78931;SDS011;68331;53.362;55.932;2023-05-07T13:42:48;4.25;;;3.20;;
78931;SDS011;68331;53.362;55.932;2023-05-07T13:45:14;4.40;;;3.38;;
78931;SDS011;68331;53.362;55.932;2023-05-07T13:47:44;4.75;;;3.65;;
78931;SDS011;68331;53.362;55.932;2023-05-07T13:50:11;4.70;;;3.47;;
78931;SDS011;68331;53.362;55.932;2023-05-07T13:52:42;4.43;;;3.25;;
78931;SDS011;68331;53.362;55.932;2023-05-07T13:55:11;5.05;;;3.40;;
78931;SDS011;68331;53.362;55.932;2023-05-07T13:57:37;3.85;;;3.17;;
78931;SDS011;68331;53.362;55.932;2023-05-07T14:00:04;3.83;;;3.10;;
78931;SDS011;68331;53.362;55.932;2023-05-07T14:02:41;5.25;;;3.60;;
78931;SDS011;68331;53.362;55.932;2023-05-07T14:05:07;6.85;;;3.50;;
78931;SDS011;68331;53.362;55.932;2023-05-07T14:07:34;4.85;;;4.03;;
78931;SDS011;68331;53.362;55.932;2023-05-07T14:10:01;8.93;;;4.57;;
78931;SDS011;68331;53.362;55.932;2023-05-07T14:12:32;8.45;;;5.00;;
78931;SDS011;68331;53.362;55.932;2023-05-07T14:14:58;16.42;;;4.70;;
78931;SDS011;68331;53.362;55.932;2023-05-07T14:17:25;10.25;;;5.53;;
78931;SDS011;68331;53.362;55.932;2023-05-07T14:22:22;5.45;;;4.07;;
78931;SDS011;68331;53.362;55.932;2023-05-07T14:24:48;5.53;;;4.50;;
78931;SDS011;68331;53.362;55.932;2023-05-07T14:27:15;9.15;;;5.40;;
78931;SDS011;68331;53.362;55.932;2023-05-07T14:29:41;10.77;;;5.22;;
78931;SDS011;68331;53.362;55.932;2023-05-07T14:32:08;9.82;;;5.90;;
78931;SDS011;68331;53.362;55.932;2023-05-07T14:34:34;12.20;;;6.63;;
78931;SDS011;68331;53.362;55.932;2023-05-07T14:37:00;9.77;;;5.75;;
78931;SDS011;68331;53.362;55.932;2023-05-07T14:39:27;7.88;;;5.60;;
78931;SDS011;68331;53.362;55.932;2023-05-07T14:41:54;9.57;;;6.35;;
78931;SDS011;68331;53.362;55.932;2023-05-07T14:44:21;16.02;;;6.47;;
78931;SDS011;68331;53.362;55.932;2023-05-07T14:46:47;9.27;;;5.70;;
78931;SDS011;68331;53.362;55.932;2023-05-07T14:49:14;9.38;;;5.68;;
78931;SDS011;68331;53.362;55.932;2023-05-07T14:51:43;12.88;;;5.38;;
78931;SDS011;68331;53.362;55.932;2023-05-07T14:54:11;10.55;;;5.65;;
78931;SDS011;68331;53.362;55.932;2023-05-07T14:56:38;11.73;;;6.75;;
78931;SDS011;68331;53.362;55.932;2023-05-07T14:59:04;4.70;;;4.00;;
78931;SDS011;68331;53.362;55.932;2023-05-07T15:01:31;6.90;;;4.38;;
78931;SDS011;68331;53.362;55.932;2023-05-07T15:03:57;4.35;;;3.53;;